createdAt,value
2023-01-21T00:01:05.657Z,14.10
2023-01-21T00:03:32.959Z,14.30
2023-01-21T00:06:00.114Z,14.13
2023-01-21T00:08:27.777Z,13.98
2023-01-21T00:10:54.784Z,14.52
2023-01-21T00:13:24.745Z,13.85
2023-01-21T00:15:54.935Z,14.32
2023-01-21T00:18:22.089Z,15.32
2023-01-21T00:20:48.885Z,15.20
2023-01-21T00:23:15.778Z,14.25
2023-01-21T00:25:43.220Z,15.50
2023-01-21T00:28:10.201Z,14.25
2023-01-21T00:30:37.204Z,14.98
2023-01-21T00:33:04.439Z,15.10
2023-01-21T00:35:31.625Z,14.88
2023-01-21T00:37:58.521Z,14.95
2023-01-21T00:40:26.073Z,14.57
2023-01-21T00:42:53.007Z,15.02
2023-01-21T00:45:19.973Z,14.73
2023-01-21T00:47:47.351Z,14.52
2023-01-21T00:50:14.427Z,14.82
2023-01-21T00:52:41.358Z,14.23
2023-01-21T00:55:08.782Z,13.73
2023-01-21T00:57:35.671Z,13.77
2023-01-21T01:00:02.691Z,14.45
2023-01-21T01:02:29.535Z,15.32
2023-01-21T01:04:56.732Z,14.75
2023-01-21T01:07:23.559Z,13.90
2023-01-21T01:09:50.302Z,14.38
2023-01-21T01:12:17.229Z,14.95
2023-01-21T01:14:44.244Z,15.40
2023-01-21T01:17:11.109Z,15.27
2023-01-21T01:19:38.118Z,13.98
2023-01-21T01:22:04.896Z,15.90
2023-01-21T01:24:32.066Z,15.57
2023-01-21T01:26:59.006Z,15.68
2023-01-21T01:29:26.149Z,15.48
2023-01-21T01:31:53.162Z,14.98
2023-01-21T01:34:20.130Z,15.55
2023-01-21T01:36:48.613Z,16.05
2023-01-21T01:39:15.458Z,15.30
2023-01-21T01:41:44.737Z,15.32
2023-01-21T01:44:49.258Z,15.90
2023-01-21T01:47:16.314Z,16.77
2023-01-21T01:49:43.254Z,17.30
2023-01-21T01:52:12.131Z,16.63
2023-01-21T01:54:48.155Z,17.35
2023-01-21T01:57:18.293Z,17.55
2023-01-21T01:59:45.818Z,16.90
2023-01-21T02:02:16.741Z,17.73
2023-01-21T02:04:51.393Z,17.50
2023-01-21T02:07:20.686Z,18.10
2023-01-21T02:09:47.558Z,17.30
2023-01-21T02:12:20.156Z,18.23
2023-01-21T02:14:48.194Z,17.83
2023-01-21T02:17:21.199Z,17.52
2023-01-21T02:20:10.518Z,17.50
2023-01-21T02:23:08.768Z,17.95
2023-01-21T02:25:57.337Z,18.50
2023-01-21T02:28:39.472Z,17.33
2023-01-21T02:31:24.545Z,17.05
2023-01-21T02:37:47.766Z,16.60
2023-01-21T02:40:27.439Z,17.17
2023-01-21T02:43:24.916Z,16.73
2023-01-21T02:48:35.070Z,15.88
2023-01-21T02:51:02.287Z,16.15
2023-01-21T02:53:32.058Z,15.80
2023-01-21T02:56:09.824Z,15.05
2023-01-21T02:58:41.154Z,15.48
2023-01-21T03:01:20.515Z,14.85
2023-01-21T03:04:19.706Z,15.27
2023-01-21T03:06:50.583Z,14.82
2023-01-21T03:09:27.035Z,14.77
2023-01-21T03:14:46.399Z,13.52
2023-01-21T03:17:38.017Z,14.23
2023-01-21T03:20:38.154Z,14.10
2023-01-21T03:23:13.016Z,13.48
2023-01-21T03:25:41.412Z,13.88
2023-01-21T03:28:13.674Z,14.05
2023-01-21T03:30:43.398Z,13.48
2023-01-21T03:36:11.843Z,13.85
2023-01-21T03:38:49.748Z,14.57
2023-01-21T03:41:27.421Z,14.23
2023-01-21T03:43:54.505Z,13.73
2023-01-21T03:46:56.508Z,14.15
2023-01-21T03:50:06.750Z,13.18
2023-01-21T03:52:33.758Z,13.35
2023-01-21T03:55:00.732Z,13.35
2023-01-21T03:57:27.590Z,13.68
2023-01-21T03:59:55.062Z,13.32
2023-01-21T04:02:22.148Z,13.25
2023-01-21T04:04:49.361Z,12.85
2023-01-21T04:07:16.721Z,12.30
2023-01-21T04:09:43.775Z,13.57
2023-01-21T04:12:11.511Z,13.13
2023-01-21T04:14:38.573Z,12.77
2023-01-21T04:17:06.053Z,12.32
2023-01-21T04:19:33.035Z,12.65
2023-01-21T04:21:59.925Z,12.15
2023-01-21T04:24:27.066Z,12.02
2023-01-21T04:26:54.188Z,11.52
2023-01-21T04:29:21.043Z,11.73
2023-01-21T04:31:48.464Z,12.13
2023-01-21T04:34:16.762Z,12.68
2023-01-21T04:36:43.821Z,12.82
2023-01-21T04:39:11.458Z,13.27
2023-01-21T04:41:38.443Z,12.65
2023-01-21T04:44:05.717Z,11.80
2023-01-21T04:46:32.671Z,11.73
2023-01-21T04:48:59.499Z,12.35
2023-01-21T04:51:26.484Z,12.18
2023-01-21T04:53:53.459Z,11.85
2023-01-21T04:56:20.269Z,12.32
2023-01-21T04:58:47.162Z,11.93
2023-01-21T05:01:13.951Z,12.15
2023-01-21T05:03:40.893Z,12.60
2023-01-21T05:06:07.878Z,12.30
2023-01-21T05:08:34.795Z,12.35
2023-01-21T05:11:01.736Z,12.20
2023-01-21T05:13:28.593Z,12.70
2023-01-21T05:15:55.983Z,12.13
2023-01-21T05:18:22.920Z,12.25
2023-01-21T05:20:49.766Z,12.48
2023-01-21T05:23:16.575Z,12.63
2023-01-21T05:25:43.476Z,12.32
2023-01-21T05:28:10.365Z,12.15
2023-01-21T05:30:40.170Z,12.20
2023-01-21T05:33:07.599Z,12.38
2023-01-21T05:35:40.822Z,12.10
2023-01-21T05:38:07.680Z,12.48
2023-01-21T05:40:34.608Z,12.13
2023-01-21T05:43:01.526Z,11.43
2023-01-21T05:45:28.442Z,11.63
2023-01-21T05:47:55.230Z,11.75
2023-01-21T05:50:22.119Z,11.05
2023-01-21T05:52:49.013Z,12.15
2023-01-21T05:55:16.120Z,11.32
2023-01-21T05:57:43.339Z,11.40
2023-01-21T06:00:10.673Z,12.43
2023-01-21T06:02:37.457Z,11.40
2023-01-21T06:05:04.571Z,11.40
2023-01-21T06:07:31.458Z,11.52
2023-01-21T06:09:58.406Z,11.65
2023-01-21T06:12:25.251Z,11.43
2023-01-21T06:14:52.009Z,11.82
2023-01-21T06:17:18.706Z,11.80
2023-01-21T06:19:45.583Z,11.63
2023-01-21T06:22:16.711Z,11.88
2023-01-21T06:24:43.860Z,12.30
2023-01-21T06:27:11.305Z,12.50
2023-01-21T06:29:38.026Z,13.63
2023-01-21T06:32:05.135Z,12.48
2023-01-21T06:34:31.996Z,11.98
2023-01-21T06:49:12.757Z,10.65
2023-01-21T06:51:39.583Z,10.93
2023-01-21T06:54:06.711Z,11.20
2023-01-21T06:56:33.443Z,12.35
2023-01-21T06:59:00.115Z,11.77
2023-01-21T07:01:26.968Z,11.40
2023-01-21T07:03:53.862Z,11.13
2023-01-21T07:06:22.381Z,10.73
2023-01-21T07:08:49.098Z,11.70
2023-01-21T07:11:15.892Z,11.63
2023-01-21T07:13:42.649Z,11.90
2023-01-21T07:16:09.460Z,11.30
2023-01-21T07:18:36.271Z,11.02
2023-01-21T07:21:03.094Z,11.77
2023-01-21T07:23:30.362Z,12.13
2023-01-21T07:25:57.979Z,11.02
2023-01-21T07:28:24.828Z,11.45
2023-01-21T07:30:51.681Z,10.80
2023-01-21T07:33:18.440Z,11.70
2023-01-21T07:35:45.217Z,11.70
2023-01-21T07:38:11.971Z,11.65
2023-01-21T07:40:38.668Z,10.50
2023-01-21T07:43:05.581Z,10.70
2023-01-21T07:45:32.567Z,10.82
2023-01-21T07:47:59.494Z,10.57
2023-01-21T07:50:26.614Z,11.30
2023-01-21T07:52:56.532Z,10.57
2023-01-21T07:55:23.259Z,11.25
2023-01-21T07:57:49.980Z,11.35
2023-01-21T08:00:17.622Z,10.32
2023-01-21T08:02:45.122Z,11.35
2023-01-21T08:05:12.338Z,10.07
2023-01-21T08:07:39.185Z,10.57
2023-01-21T08:10:06.302Z,11.25
2023-01-21T08:12:33.757Z,11.38
2023-01-21T08:15:01.054Z,10.80
2023-01-21T08:17:27.992Z,10.98
2023-01-21T08:19:55.013Z,10.82
2023-01-21T08:22:21.801Z,10.55
2023-01-21T08:24:48.630Z,9.93
2023-01-21T08:27:15.345Z,11.90
2023-01-21T08:29:42.095Z,11.32
2023-01-21T08:32:09.091Z,11.82
2023-01-21T08:34:36.112Z,11.60
2023-01-21T08:37:03.269Z,11.48
2023-01-21T08:39:30.298Z,11.82
2023-01-21T08:41:57.161Z,11.88
2023-01-21T08:44:24.018Z,12.32
2023-01-21T08:46:50.835Z,12.15
2023-01-21T08:49:17.647Z,12.07
2023-01-21T08:51:44.645Z,12.18
2023-01-21T08:54:11.581Z,12.50
2023-01-21T08:56:38.499Z,12.13
2023-01-21T08:59:05.768Z,11.90
2023-01-21T09:01:33.532Z,12.32
2023-01-21T09:04:01.346Z,12.23
2023-01-21T09:06:29.755Z,13.18
2023-01-21T09:08:57.036Z,12.40
2023-01-21T09:11:24.489Z,12.82
2023-01-21T09:13:51.273Z,13.13
2023-01-21T09:16:23.005Z,13.98
2023-01-21T09:18:50.434Z,12.02
2023-01-21T09:21:17.494Z,12.82
2023-01-21T09:23:45.671Z,10.77
2023-01-21T09:26:21.215Z,11.23
2023-01-21T09:28:53.710Z,10.00
2023-01-21T09:31:25.233Z,9.52
2023-01-21T09:34:00.751Z,9.98
2023-01-21T09:36:31.098Z,10.15
2023-01-21T09:38:58.693Z,9.63
2023-01-21T09:41:28.310Z,9.25
2023-01-21T09:44:03.403Z,9.23
2023-01-21T09:46:35.136Z,8.90
2023-01-21T09:49:05.468Z,9.25
2023-01-21T09:51:57.395Z,9.43
2023-01-21T09:54:27.517Z,9.02
2023-01-21T09:57:22.770Z,9.23
2023-01-21T10:00:08.161Z,8.55
2023-01-21T10:02:54.817Z,9.18
2023-01-21T10:05:24.628Z,9.30
2023-01-21T10:08:10.117Z,8.60
2023-01-21T10:11:01.129Z,9.30
2023-01-21T10:14:22.010Z,8.27
2023-01-21T10:16:57.779Z,8.02
2023-01-21T10:19:36.942Z,8.45
2023-01-21T10:22:18.615Z,9.07
2023-01-21T10:25:10.587Z,8.65
2023-01-21T10:27:40.097Z,8.57
2023-01-21T10:30:22.107Z,9.07
2023-01-21T10:32:54.206Z,8.70
2023-01-21T10:35:41.930Z,9.35
2023-01-21T10:38:40.417Z,9.40
2023-01-21T10:41:32.349Z,9.05
2023-01-21T10:44:09.695Z,8.82
2023-01-21T10:47:04.326Z,9.35
2023-01-21T10:49:53.251Z,7.80
2023-01-21T10:52:27.659Z,7.85
2023-01-21T10:54:57.675Z,7.57
2023-01-21T10:57:49.069Z,8.48
2023-01-21T11:00:24.471Z,7.43
2023-01-21T11:02:57.131Z,8.07
2023-01-21T11:05:26.434Z,8.35
2023-01-21T11:07:55.600Z,8.35
2023-01-21T11:10:27.154Z,9.13
2023-01-21T11:12:56.082Z,8.45
2023-01-21T11:15:24.669Z,7.95
2023-01-21T11:17:56.686Z,9.13
2023-01-21T11:20:29.919Z,8.27
2023-01-21T11:22:57.375Z,6.78
2023-01-21T11:25:41.133Z,7.55
2023-01-21T11:28:26.735Z,8.32
2023-01-21T11:31:13.853Z,7.60
2023-01-21T11:33:42.675Z,7.78
2023-01-21T11:36:17.542Z,7.43
2023-01-21T11:38:47.414Z,8.05
2023-01-21T11:41:23.172Z,7.80
2023-01-21T11:43:55.693Z,8.40
2023-01-21T11:46:30.679Z,7.93
2023-01-21T11:49:07.295Z,8.13
2023-01-21T11:51:38.911Z,8.07
2023-01-21T11:54:19.910Z,7.82
2023-01-21T11:57:03.060Z,8.02
2023-01-21T11:59:34.466Z,7.88
2023-01-21T12:02:09.863Z,8.20
2023-01-21T12:04:37.297Z,8.70
2023-01-21T12:07:05.517Z,8.57
2023-01-21T12:09:32.587Z,9.20
2023-01-21T12:12:26.304Z,8.90
2023-01-21T12:14:59.317Z,8.43
2023-01-21T12:17:29.209Z,7.82
2023-01-21T12:20:20.998Z,8.50
2023-01-21T12:23:05.833Z,7.72
2023-01-21T12:25:48.411Z,8.25
2023-01-21T12:28:27.018Z,8.57
2023-01-21T12:31:23.973Z,8.52
2023-01-21T12:34:39.819Z,8.77
2023-01-21T12:37:16.437Z,9.05
2023-01-21T12:42:22.949Z,8.88
2023-01-21T12:44:54.264Z,8.60
2023-01-21T12:47:24.048Z,9.40
2023-01-21T12:50:14.115Z,9.38
2023-01-21T12:53:22.634Z,9.30
2023-01-21T12:56:09.210Z,12.55
2023-01-21T12:58:42.842Z,10.80
2023-01-21T13:01:15.016Z,10.82
2023-01-21T13:04:13.763Z,9.98
2023-01-21T13:06:54.606Z,10.10
2023-01-21T13:09:58.586Z,15.88
2023-01-21T13:12:27.595Z,11.07
2023-01-21T13:15:06.460Z,9.57
2023-01-21T13:17:37.362Z,10.10
2023-01-21T13:20:14.818Z,11.63
2023-01-21T13:22:47.824Z,8.77
2023-01-21T13:25:39.425Z,9.60
2023-01-21T13:28:21.659Z,8.88
2023-01-21T13:31:07.008Z,9.43
2023-01-21T13:33:42.782Z,9.15
2023-01-21T13:36:17.484Z,8.37
2023-01-21T13:38:53.640Z,6.18
2023-01-21T13:41:29.356Z,6.85
2023-01-21T13:44:36.377Z,6.70
2023-01-21T13:47:58.682Z,6.23
2023-01-21T13:50:44.272Z,6.00
2023-01-21T13:53:35.571Z,5.82
2023-01-21T13:56:30.054Z,5.90
2023-01-21T13:59:17.487Z,5.70
2023-01-21T14:01:54.446Z,5.60
2023-01-21T14:04:27.587Z,4.63
2023-01-21T14:07:14.539Z,4.88
2023-01-21T14:12:25.815Z,5.88
2023-01-21T14:15:05.229Z,5.03
2023-01-21T14:17:52.656Z,5.07
2023-01-21T14:20:30.853Z,5.18
2023-01-21T14:23:11.900Z,5.10
2023-01-21T14:26:08.090Z,5.47
2023-01-21T14:28:45.244Z,5.88
2023-01-21T14:31:18.878Z,5.03
2023-01-21T14:33:58.704Z,5.05
2023-01-21T14:36:38.611Z,4.82
2023-01-21T14:39:43.325Z,4.10
2023-01-21T14:42:13.436Z,4.43
2023-01-21T14:44:50.364Z,4.60
2023-01-21T14:47:29.157Z,4.57
2023-01-21T14:49:58.624Z,4.40
2023-01-21T14:52:32.208Z,4.45
2023-01-21T14:55:00.406Z,4.55
2023-01-21T14:57:39.401Z,4.40
2023-01-21T15:00:46.349Z,4.57
2023-01-21T15:03:27.125Z,4.17
2023-01-21T15:06:09.376Z,4.20
2023-01-21T15:08:46.114Z,4.63
2023-01-21T15:11:43.901Z,4.30
2023-01-21T15:17:53.377Z,3.88
2023-01-21T15:20:41.703Z,3.80
2023-01-21T15:23:29.441Z,4.13
2023-01-21T15:26:13.913Z,4.18
2023-01-21T15:28:49.476Z,3.53
2023-01-21T15:31:21.878Z,4.15
2023-01-21T15:33:57.665Z,4.40
2023-01-21T15:36:31.057Z,5.00
2023-01-21T15:39:03.602Z,4.88
2023-01-21T15:41:50.850Z,4.88
2023-01-21T15:44:35.586Z,5.40
2023-01-21T15:47:34.675Z,5.53
2023-01-21T15:50:06.013Z,6.20
2023-01-21T16:05:05.606Z,5.47
2023-01-21T16:07:32.330Z,5.32
2023-01-21T16:10:41.024Z,5.32
2023-01-21T16:13:34.569Z,4.85
2023-01-21T16:16:29.255Z,5.35
2023-01-21T16:19:34.331Z,5.22
2023-01-21T16:22:05.147Z,5.60
2023-01-21T16:24:34.024Z,5.28
2023-01-21T16:27:44.802Z,6.00
2023-01-21T16:30:19.758Z,5.57
2023-01-21T16:32:47.241Z,5.55
2023-01-21T16:35:13.988Z,6.00
2023-01-21T16:37:43.622Z,5.68
2023-01-21T16:40:21.240Z,11.13
2023-01-21T16:42:48.176Z,5.93
2023-01-21T16:45:15.291Z,5.50
2023-01-21T16:47:42.883Z,6.25
2023-01-21T16:50:24.999Z,6.05
2023-01-21T16:52:54.470Z,4.97
2023-01-21T16:55:30.875Z,5.55
2023-01-21T17:00:31.691Z,5.30
2023-01-21T17:03:03.683Z,5.50
2023-01-21T17:05:35.375Z,6.50
2023-01-21T17:08:09.560Z,7.00
2023-01-21T17:10:52.181Z,7.07
2023-01-21T17:13:19.552Z,6.05
2023-01-21T17:15:57.646Z,6.35
2023-01-21T17:18:36.705Z,5.60
2023-01-21T17:21:09.059Z,5.75
2023-01-21T17:23:51.189Z,6.40
2023-01-21T17:26:21.672Z,6.85
2023-01-21T17:28:58.088Z,6.70
2023-01-21T17:34:04.424Z,5.80
2023-01-21T17:36:36.294Z,5.82
2023-01-21T17:39:04.677Z,7.15
2023-01-21T17:41:34.695Z,6.82
2023-01-21T17:44:07.867Z,6.95
2023-01-21T17:46:34.985Z,11.50
2023-01-21T17:49:08.734Z,7.40
2023-01-21T17:51:35.837Z,7.57
2023-01-21T17:54:05.446Z,7.13
2023-01-21T17:56:41.405Z,6.85
2023-01-21T17:59:38.332Z,7.68
2023-01-21T18:02:17.537Z,7.22
2023-01-21T18:04:44.565Z,7.68
2023-01-21T18:07:30.025Z,6.50
2023-01-21T18:10:02.742Z,7.00
2023-01-21T18:12:29.728Z,7.55
2023-01-21T18:14:56.706Z,9.52
2023-01-21T18:17:25.219Z,7.18
2023-01-21T18:19:52.452Z,8.93
2023-01-21T18:22:28.287Z,7.90
2023-01-21T18:24:57.862Z,6.45
2023-01-21T18:27:26.117Z,6.78
2023-01-21T18:29:53.619Z,6.07
2023-01-21T18:32:20.664Z,6.18
2023-01-21T18:34:47.424Z,6.47
2023-01-21T18:37:17.414Z,7.25
2023-01-21T18:39:44.324Z,8.02
2023-01-21T18:42:15.366Z,8.50
2023-01-21T18:44:42.976Z,6.97
2023-01-21T18:47:14.588Z,7.00
2023-01-21T18:49:41.926Z,6.13
2023-01-21T18:52:16.932Z,6.78
2023-01-21T18:54:43.978Z,6.60
2023-01-21T18:57:18.134Z,7.00
2023-01-21T19:07:33.953Z,5.82
2023-01-21T19:42:35.699Z,6.95
2023-01-21T19:45:02.566Z,8.10
2023-01-21T19:47:30.224Z,7.18
2023-01-21T19:49:57.288Z,11.70
2023-01-21T19:52:24.326Z,6.47
2023-01-21T19:54:53.355Z,8.38
2023-01-21T19:57:21.663Z,7.32
2023-01-21T19:59:50.743Z,7.82
2023-01-21T20:02:17.577Z,6.65
2023-01-21T20:04:44.782Z,7.55
2023-01-21T20:07:15.962Z,9.65
2023-01-21T20:22:04.618Z,7.18
2023-01-21T20:24:34.287Z,6.60
2023-01-21T20:27:03.091Z,8.98
2023-01-21T20:29:29.988Z,7.22
2023-01-21T20:31:57.354Z,6.22
2023-01-21T20:34:25.321Z,6.15
2023-01-21T20:36:52.703Z,6.22
2023-01-21T20:39:20.550Z,5.68
2023-01-21T20:41:47.568Z,6.07
2023-01-21T20:44:14.346Z,6.22
2023-01-21T20:46:42.069Z,5.80
2023-01-21T20:49:11.644Z,7.38
2023-01-21T20:51:38.443Z,6.32
2023-01-21T20:54:05.338Z,5.53
2023-01-21T20:56:32.944Z,5.43
2023-01-21T20:59:00.124Z,6.13
2023-01-21T21:01:28.237Z,6.60
2023-01-21T21:03:55.193Z,9.55
2023-01-21T21:06:25.805Z,7.57
2023-01-21T21:22:44.915Z,5.40
2023-01-21T21:25:16.855Z,6.28
2023-01-21T21:27:44.569Z,6.18
2023-01-21T21:30:14.038Z,6.07
2023-01-21T21:32:40.972Z,6.80
2023-01-21T21:35:31.019Z,6.40
2023-01-21T21:38:01.035Z,6.50
2023-01-21T21:40:31.357Z,7.55
2023-01-21T21:43:17.268Z,8.05
2023-01-21T21:46:03.135Z,6.90
2023-01-21T21:48:39.778Z,6.28
2023-01-21T21:51:08.877Z,6.32
2023-01-21T21:53:36.954Z,7.25
2023-01-21T21:56:09.240Z,7.38
2023-01-21T21:58:36.479Z,8.13
2023-01-21T22:01:14.029Z,7.63
2023-01-21T22:03:41.548Z,7.50
2023-01-21T22:06:09.338Z,6.35
2023-01-21T22:08:37.789Z,7.00
2023-01-21T22:11:06.938Z,6.85
2023-01-21T22:13:37.454Z,6.75
2023-01-21T22:16:05.036Z,7.22
2023-01-21T22:18:32.381Z,6.85
2023-01-21T22:21:04.247Z,7.25
2023-01-21T22:23:33.882Z,7.70
2023-01-21T22:26:09.358Z,7.60
2023-01-21T22:28:36.416Z,7.53
2023-01-21T22:31:08.734Z,7.90
2023-01-21T22:33:37.211Z,7.47
2023-01-21T22:36:06.162Z,7.03
2023-01-21T22:38:34.561Z,8.95
2023-01-21T22:41:02.143Z,8.23
2023-01-21T22:43:29.343Z,8.15
2023-01-21T22:45:57.900Z,8.25
2023-01-21T22:48:25.844Z,8.27
2023-01-21T22:50:55.409Z,8.05
2023-01-21T22:53:24.000Z,8.52
2023-01-21T22:56:05.273Z,8.55
2023-01-21T22:58:34.110Z,7.93
2023-01-21T23:01:02.215Z,7.70
2023-01-21T23:03:29.708Z,8.43
2023-01-21T23:06:07.471Z,8.02
2023-01-21T23:08:36.814Z,8.38
2023-01-21T23:11:05.607Z,8.00
2023-01-21T23:13:34.039Z,8.32
2023-01-21T23:16:01.243Z,8.32
2023-01-21T23:18:29.526Z,9.25
2023-01-21T23:20:56.910Z,8.88
2023-01-21T23:23:24.814Z,8.77
2023-01-21T23:25:51.860Z,8.60
2023-01-21T23:28:18.984Z,8.80
2023-01-21T23:30:46.193Z,8.55
2023-01-21T23:33:13.470Z,8.40
2023-01-21T23:35:40.579Z,8.40
2023-01-21T23:38:07.489Z,8.43
2023-01-21T23:40:34.489Z,8.25
2023-01-21T23:43:01.264Z,7.75
2023-01-21T23:45:28.086Z,7.55
2023-01-21T23:47:55.634Z,7.85
2023-01-21T23:50:22.639Z,7.43
2023-01-21T23:52:49.634Z,7.38
2023-01-21T23:55:16.698Z,7.63
2023-01-21T23:57:43.734Z,7.50
